createdAt,value
2022-10-28T00:01:30.521Z,101407.38
2022-10-28T00:04:01.362Z,101398.25
2022-10-28T00:06:32.108Z,101395.72
2022-10-28T00:09:05.574Z,101394.88
2022-10-28T00:11:37.011Z,101391.19
2022-10-28T00:14:07.820Z,101391.44
2022-10-28T00:16:38.356Z,101398.69
2022-10-28T00:19:08.922Z,101392.56
2022-10-28T00:21:39.544Z,101396.97
2022-10-28T00:24:11.304Z,101403.47
2022-10-28T00:26:42.447Z,101397.22
2022-10-28T00:29:13.751Z,101398.81
2022-10-28T00:31:42.875Z,101395.25
2022-10-28T00:34:13.497Z,101394.25
2022-10-28T00:36:43.740Z,101394.16
2022-10-28T00:39:19.596Z,101397.69
2022-10-28T00:41:51.015Z,101392.28
2022-10-28T00:44:58.546Z,101393.16
2022-10-28T00:47:52.546Z,101391.44
2022-10-28T00:50:44.987Z,101393.41
2022-10-28T00:53:17.320Z,101391.69
2022-10-28T00:55:50.044Z,101398.94
2022-10-28T00:58:20.448Z,101392.69
2022-10-28T01:00:48.997Z,101392.69
2022-10-28T01:03:17.877Z,101388.28
2022-10-28T01:05:49.616Z,101389.97
2022-10-28T01:08:18.726Z,101388.13
2022-10-28T01:11:13.467Z,101388.97
2022-10-28T01:14:00.962Z,101386.28
2022-10-28T01:16:38.472Z,101380.03
2022-10-28T01:19:38.962Z,101378.94
2022-10-28T01:22:15.897Z,101377.22
2022-10-28T01:25:00.389Z,101371.84
2022-10-28T01:28:00.419Z,101373.69
2022-10-28T01:30:36.229Z,101368.13
2022-10-28T01:33:11.188Z,101369.13
2022-10-28T01:35:48.485Z,101365.59
2022-10-28T01:38:28.261Z,101359.91
2022-10-28T01:41:06.446Z,101355.66
2022-10-28T01:43:43.284Z,101344.88
2022-10-28T01:46:16.889Z,101348.53
2022-10-28T01:48:52.587Z,101342.28
2022-10-28T01:51:25.351Z,101350.25
2022-10-28T01:53:57.114Z,101342.03
2022-10-28T01:56:29.666Z,101336.78
2022-10-28T01:59:02.195Z,101347.56
2022-10-28T02:01:32.536Z,101347.56
2022-10-28T02:04:03.553Z,101340.31
2022-10-28T02:06:35.018Z,101336.66
2022-10-28T02:09:19.699Z,101330.53
2022-10-28T02:12:21.507Z,101336.03
2022-10-28T02:15:30.776Z,101328.22
2022-10-28T02:18:22.814Z,101332.03
2022-10-28T02:20:57.088Z,101334.72
2022-10-28T02:23:34.443Z,101335.84
2022-10-28T02:26:11.447Z,101324.06
2022-10-28T02:28:49.155Z,101314.28
2022-10-28T02:31:25.856Z,101311.13
2022-10-28T02:34:00.030Z,101320.00
2022-10-28T02:36:35.409Z,101320.38
2022-10-28T02:39:07.773Z,101325.88
2022-10-28T02:41:41.673Z,101323.44
2022-10-28T02:44:13.684Z,101322.22
2022-10-28T02:46:46.880Z,101324.91
2022-10-28T02:49:16.751Z,101321.09
2022-10-28T02:51:50.633Z,101316.28
2022-10-28T02:54:22.786Z,101318.88
2022-10-28T02:56:57.560Z,101313.34
2022-10-28T02:59:26.938Z,101316.06
2022-10-28T03:01:56.008Z,101319.72
2022-10-28T03:04:27.283Z,101319.72
2022-10-28T03:06:57.844Z,101309.19
2022-10-28T03:09:29.577Z,101313.88
2022-10-28T03:11:58.262Z,101320.97
2022-10-28T03:14:26.946Z,101320.84
2022-10-28T03:16:55.706Z,101311.91
2022-10-28T03:19:25.266Z,101309.94
2022-10-28T03:21:53.979Z,101305.28
2022-10-28T03:24:24.269Z,101312.34
2022-10-28T03:26:52.878Z,101312.25
2022-10-28T03:29:21.640Z,101314.94
2022-10-28T03:31:50.628Z,101318.34
2022-10-28T03:34:19.482Z,101315.78
2022-10-28T03:36:48.107Z,101311.25
2022-10-28T03:39:17.016Z,101311.13
2022-10-28T03:41:47.246Z,101303.75
2022-10-28T03:44:15.948Z,101310.84
2022-10-28T03:46:44.681Z,101314.53
2022-10-28T03:49:13.382Z,101299.34
2022-10-28T03:51:42.028Z,101300.34
2022-10-28T03:54:10.806Z,101299.44
2022-10-28T03:56:40.763Z,101299.34
2022-10-28T03:59:14.069Z,101292.97
2022-10-28T04:01:45.232Z,101295.66
2022-10-28T04:04:14.005Z,101294.78
2022-10-28T04:06:42.751Z,101291.38
2022-10-28T04:09:11.562Z,101282.31
2022-10-28T04:11:40.500Z,101281.47
2022-10-28T04:14:09.147Z,101285.97
2022-10-28T04:16:39.238Z,101284.88
2022-10-28T04:19:07.872Z,101276.47
2022-10-28T04:21:36.598Z,101280.72
2022-10-28T04:24:05.616Z,101276.31
2022-10-28T04:26:36.049Z,101269.22
2022-10-28T04:29:04.840Z,101268.22
2022-10-28T04:31:33.498Z,101273.59
2022-10-28T04:34:03.754Z,101274.50
2022-10-28T04:36:32.429Z,101273.50
2022-10-28T04:39:00.967Z,101267.25
2022-10-28T04:41:29.889Z,101266.13
2022-10-28T04:43:58.571Z,101261.59
2022-10-28T04:46:27.830Z,101256.19
2022-10-28T04:48:56.562Z,101263.31
2022-10-28T04:51:26.807Z,101251.91
2022-10-28T04:53:55.388Z,101249.94
2022-10-28T04:56:24.351Z,101242.59
2022-10-28T04:58:52.861Z,101236.19
2022-10-28T05:01:21.527Z,101248.72
2022-10-28T05:03:50.289Z,101241.47
2022-10-28T05:06:18.964Z,101247.59
2022-10-28T05:08:48.923Z,101247.72
2022-10-28T05:11:17.749Z,101252.25
2022-10-28T05:13:46.469Z,101253.09
2022-10-28T05:16:15.219Z,101256.53
2022-10-28T05:21:13.599Z,101245.84
2022-10-28T05:23:42.242Z,101246.47
2022-10-28T05:26:12.489Z,101257.38
2022-10-28T05:28:41.260Z,101259.94
2022-10-28T05:31:10.109Z,101257.38
2022-10-28T05:33:38.967Z,101259.06
2022-10-28T05:36:08.110Z,101255.53
2022-10-28T05:38:37.040Z,101255.53
2022-10-28T05:41:05.938Z,101259.94
2022-10-28T05:43:36.254Z,101261.53
2022-10-28T05:46:05.268Z,101264.22
2022-10-28T05:48:34.148Z,101267.59
2022-10-28T05:51:02.954Z,101268.34
2022-10-28T05:53:31.701Z,101261.13
2022-10-28T05:56:00.455Z,101260.25
2022-10-28T05:58:29.112Z,101254.72
2022-10-28T06:00:59.277Z,101265.41
2022-10-28T06:03:30.998Z,101263.66
2022-10-28T06:06:00.591Z,101256.31
2022-10-28T06:08:30.949Z,101258.88
2022-10-28T06:10:58.399Z,101260.56
2022-10-28T06:13:26.998Z,101255.91
2022-10-28T06:15:58.461Z,101258.44
2022-10-28T06:18:27.370Z,101256.47
2022-10-28T06:20:57.747Z,101257.47
2022-10-28T06:23:28.683Z,101256.47
2022-10-28T06:28:32.334Z,101255.22
2022-10-28T06:31:07.221Z,101252.66
2022-10-28T06:33:36.262Z,101248.13
2022-10-28T06:36:05.372Z,101252.53
2022-10-28T06:38:34.083Z,101245.88
2022-10-28T06:41:02.999Z,101252.97
2022-10-28T06:43:31.665Z,101252.59
2022-10-28T06:46:02.292Z,101252.69
2022-10-28T06:48:34.023Z,101241.63
2022-10-28T06:51:02.773Z,101243.94
2022-10-28T06:53:31.914Z,101244.66
2022-10-28T06:56:00.671Z,101251.66
2022-10-28T06:58:29.383Z,101246.25
2022-10-28T07:00:58.099Z,101245.84
2022-10-28T07:03:26.844Z,101254.78
2022-10-28T07:05:57.068Z,101255.38
2022-10-28T07:08:26.092Z,101254.38
2022-10-28T07:10:58.592Z,101264.78
2022-10-28T07:13:28.054Z,101262.53
2022-10-28T07:15:58.424Z,101266.06
2022-10-28T07:18:29.463Z,101272.06
2022-10-28T07:21:01.625Z,101271.06
2022-10-28T07:23:31.919Z,101273.63
2022-10-28T07:26:00.523Z,101274.47
2022-10-28T07:28:30.746Z,101270.78
2022-10-28T07:31:03.016Z,101277.63
2022-10-28T07:33:32.242Z,101268.69
2022-10-28T07:36:04.411Z,101281.88
2022-10-28T07:38:33.469Z,101285.44
2022-10-28T07:41:07.295Z,101280.63
2022-10-28T07:43:38.455Z,101292.41
2022-10-28T07:46:07.419Z,101283.63
2022-10-28T07:48:37.467Z,101281.03
2022-10-28T07:51:09.373Z,101274.50
2022-10-28T07:53:38.107Z,101272.94
2022-10-28T07:56:09.896Z,101280.91
2022-10-28T07:58:38.987Z,101275.78
2022-10-28T08:01:10.319Z,101275.50
2022-10-28T08:03:39.449Z,101276.97
2022-10-28T08:06:11.373Z,101277.09
2022-10-28T08:08:40.783Z,101280.78
2022-10-28T08:11:13.419Z,101287.31
2022-10-28T08:13:42.301Z,101278.38
2022-10-28T08:16:11.097Z,101282.19
2022-10-28T08:18:40.902Z,101278.78
2022-10-28T08:21:12.369Z,101281.59
2022-10-28T08:23:41.710Z,101280.75
2022-10-28T08:26:10.404Z,101277.94
2022-10-28T08:28:39.223Z,101277.22
2022-10-28T08:31:10.265Z,101280.47
2022-10-28T08:33:40.579Z,101275.34
2022-10-28T08:36:12.983Z,101277.22
2022-10-28T08:38:45.558Z,101279.78
2022-10-28T08:41:31.261Z,101272.38
2022-10-28T08:44:25.008Z,101272.81
2022-10-28T08:47:08.088Z,101270.28
2022-10-28T08:49:42.468Z,101269.72
2022-10-28T08:52:26.247Z,101263.78
2022-10-28T08:55:00.347Z,101264.63
2022-10-28T08:57:39.483Z,101261.19
2022-10-28T09:00:10.337Z,101264.03
2022-10-28T09:02:50.624Z,101260.63
2022-10-28T09:05:23.476Z,101266.03
2022-10-28T09:07:54.907Z,101271.28
2022-10-28T09:10:37.948Z,101261.78
2022-10-28T09:13:12.071Z,101262.63
2022-10-28T09:15:49.291Z,101259.19
2022-10-28T09:18:22.391Z,101264.72
2022-10-28T09:20:55.491Z,101254.22
2022-10-28T09:23:30.245Z,101257.91
2022-10-28T09:26:13.226Z,101260.75
2022-10-28T09:28:50.752Z,101261.88
2022-10-28T09:31:27.172Z,101261.31
2022-10-28T09:34:10.547Z,101261.56
2022-10-28T09:36:43.785Z,101261.00
2022-10-28T09:39:25.244Z,101260.28
2022-10-28T09:41:58.746Z,101263.28
2022-10-28T09:44:29.988Z,101263.56
2022-10-28T09:46:59.915Z,101262.84
2022-10-28T09:49:33.609Z,101265.66
2022-10-28T09:52:12.803Z,101262.97
2022-10-28T09:54:50.628Z,101257.44
2022-10-28T09:57:19.742Z,101255.59
2022-10-28T09:59:49.028Z,101248.50
2022-10-28T10:02:28.398Z,101248.50
2022-10-28T10:04:58.509Z,101242.94
2022-10-28T10:07:33.966Z,101239.94
2022-10-28T10:10:08.029Z,101240.81
2022-10-28T10:12:36.888Z,101239.94
2022-10-28T10:15:09.145Z,101236.28
2022-10-28T10:17:42.966Z,101230.72
2022-10-28T10:20:13.801Z,101223.63
2022-10-28T10:22:43.866Z,101227.03
2022-10-28T10:25:30.067Z,101222.47
2022-10-28T10:28:02.486Z,101218.94
2022-10-28T10:30:36.111Z,101220.91
2022-10-28T10:33:07.248Z,101219.06
2022-10-28T10:35:38.351Z,101218.22
2022-10-28T10:38:08.167Z,101213.66
2022-10-28T10:40:48.364Z,101216.38
2022-10-28T10:43:23.849Z,101216.53
2022-10-28T10:45:55.288Z,101207.41
2022-10-28T10:48:24.255Z,101207.41
2022-10-28T10:50:53.746Z,101208.41
2022-10-28T10:53:25.812Z,101206.69
2022-10-28T10:56:02.140Z,101213.81
2022-10-28T10:58:33.847Z,101208.41
2022-10-28T11:01:04.684Z,101203.72
2022-10-28T11:03:36.932Z,101209.13
2022-10-28T11:06:23.242Z,101204.44
2022-10-28T11:08:58.461Z,101198.06
2022-10-28T11:11:36.279Z,101191.81
2022-10-28T11:14:08.926Z,101195.19
2022-10-28T11:16:49.391Z,101192.66
2022-10-28T11:19:23.272Z,101196.31
2022-10-28T11:22:06.308Z,101195.63
2022-10-28T11:25:29.169Z,101200.31
2022-10-28T11:28:12.954Z,101192.22
2022-10-28T11:30:54.236Z,101180.53
2022-10-28T11:33:30.909Z,101183.25
2022-10-28T11:36:11.219Z,101176.16
2022-10-28T11:39:03.778Z,101185.09
2022-10-28T11:41:41.809Z,101178.72
2022-10-28T11:44:27.361Z,101182.41
2022-10-28T11:47:08.516Z,101178.84
2022-10-28T11:50:19.329Z,101185.09
2022-10-28T11:53:14.159Z,101172.19
2022-10-28T11:55:48.363Z,101177.31
2022-10-28T11:58:25.517Z,101179.88
2022-10-28T12:01:04.874Z,101176.44
2022-10-28T12:04:15.092Z,101174.59
2022-10-28T12:07:02.592Z,101176.44
2022-10-28T12:09:42.555Z,101173.88
2022-10-28T12:12:20.791Z,101169.31
2022-10-28T12:14:57.754Z,101167.63
2022-10-28T12:17:35.465Z,101160.50
2022-10-28T12:20:12.871Z,101158.69
2022-10-28T12:22:49.660Z,101154.25
2022-10-28T12:25:24.216Z,101151.72
2022-10-28T12:27:57.095Z,101149.03
2022-10-28T12:30:28.866Z,101152.41
2022-10-28T12:33:02.726Z,101151.56
2022-10-28T12:35:36.135Z,101150.16
2022-10-28T12:38:12.269Z,101147.16
2022-10-28T12:40:46.523Z,101140.22
2022-10-28T12:43:24.389Z,101136.66
2022-10-28T12:45:55.604Z,101136.50
2022-10-28T12:48:33.405Z,101135.53
2022-10-28T12:51:07.318Z,101155.41
2022-10-28T12:53:41.199Z,101147.47
2022-10-28T12:56:15.462Z,101141.06
2022-10-28T12:58:53.933Z,101144.03
2022-10-28T13:01:26.051Z,101136.22
2022-10-28T13:03:56.585Z,101138.06
2022-10-28T13:06:47.713Z,101134.50
2022-10-28T13:09:37.955Z,101136.34
2022-10-28T13:12:51.675Z,101136.34
2022-10-28T13:15:54.413Z,101136.78
2022-10-28T13:18:48.826Z,101144.03
2022-10-28T13:21:30.980Z,101136.78
2022-10-28T13:24:04.445Z,101138.63
2022-10-28T13:26:35.628Z,101140.47
2022-10-28T13:29:08.508Z,101140.59
2022-10-28T13:31:40.913Z,101131.50
2022-10-28T13:34:11.403Z,101137.06
2022-10-28T13:36:43.690Z,101142.28
2022-10-28T13:39:25.802Z,101144.31
2022-10-28T13:42:26.684Z,101143.31
2022-10-28T13:44:56.772Z,101138.03
2022-10-28T13:47:31.079Z,101137.19
2022-10-28T13:50:37.956Z,101123.13
2022-10-28T13:53:59.843Z,101123.69
2022-10-28T13:56:45.842Z,101113.25
2022-10-28T13:59:26.029Z,101108.16
2022-10-28T14:02:32.589Z,101116.53
2022-10-28T14:05:00.284Z,101105.16
2022-10-28T14:07:32.233Z,101099.91
2022-10-28T14:10:21.191Z,101100.75
2022-10-28T14:12:53.557Z,101100.63
2022-10-28T14:15:26.222Z,101107.16
2022-10-28T14:18:09.770Z,101102.59
2022-10-28T14:20:59.298Z,101099.31
2022-10-28T14:24:16.585Z,101102.91
2022-10-28T14:27:30.864Z,101104.72
2022-10-28T14:30:21.154Z,101101.44
2022-10-28T14:33:22.679Z,101098.75
2022-10-28T14:36:09.166Z,101097.91
2022-10-28T14:39:06.020Z,101093.66
2022-10-28T14:41:52.771Z,101090.94
2022-10-28T14:44:55.657Z,101082.97
2022-10-28T14:48:03.367Z,101077.72
2022-10-28T14:50:39.744Z,101076.31
2022-10-28T14:53:15.607Z,101067.50
2022-10-28T14:55:47.268Z,101052.44
2022-10-28T14:58:23.126Z,101041.78
2022-10-28T15:01:18.781Z,101050.44
2022-10-28T15:03:51.692Z,101046.19
2022-10-28T15:06:28.390Z,101052.69
2022-10-28T15:08:58.927Z,101048.44
2022-10-28T15:11:27.650Z,101053.09
2022-10-28T15:13:56.801Z,101051.53
2022-10-28T15:16:26.956Z,101059.47
2022-10-28T15:18:59.875Z,101052.97
2022-10-28T15:21:28.560Z,101054.38
2022-10-28T15:24:02.358Z,101055.53
2022-10-28T15:26:31.151Z,101044.59
2022-10-28T15:29:00.050Z,101040.34
2022-10-28T15:31:28.749Z,101034.78
2022-10-28T15:33:58.884Z,101028.44
2022-10-28T15:36:28.573Z,101032.69
2022-10-28T15:39:07.654Z,101027.59
2022-10-28T15:41:45.643Z,101026.56
2022-10-28T15:44:33.454Z,101030.28
2022-10-28T15:47:06.116Z,101029.41
2022-10-28T15:49:38.905Z,101025.72
2022-10-28T15:52:32.163Z,101024.00
2022-10-28T15:55:02.700Z,101018.50
2022-10-28T15:57:33.258Z,101029.41
2022-10-28T16:00:29.980Z,101027.72
2022-10-28T16:03:01.496Z,101024.88
2022-10-28T16:05:59.756Z,101025.00
2022-10-28T16:08:33.778Z,101017.94
2022-10-28T16:11:04.811Z,101009.84
2022-10-28T16:13:35.458Z,101022.31
2022-10-28T16:16:08.107Z,101010.41
2022-10-28T16:18:42.921Z,101024.59
2022-10-28T16:21:19.146Z,101018.38
2022-10-28T16:23:50.944Z,101018.38
2022-10-28T16:26:19.651Z,101013.94
2022-10-28T16:28:48.194Z,101007.81
2022-10-28T16:31:18.795Z,101010.69
2022-10-28T16:33:47.674Z,101012.53
2022-10-28T16:36:17.833Z,101013.38
2022-10-28T16:38:46.413Z,101013.50
2022-10-28T16:41:18.035Z,100999.19
2022-10-28T16:43:49.674Z,101013.38
2022-10-28T16:46:18.418Z,101006.44
2022-10-28T16:48:48.413Z,101010.53
2022-10-28T16:51:19.176Z,101011.66
2022-10-28T16:53:49.853Z,101007.28
2022-10-28T16:56:19.379Z,100998.34
2022-10-28T16:58:47.973Z,100988.81
2022-10-28T17:01:19.288Z,100984.13
2022-10-28T17:03:48.471Z,100968.94
2022-10-28T17:06:18.515Z,100963.13
2022-10-28T17:09:02.327Z,100966.22
2022-10-28T17:14:05.661Z,100954.75
2022-10-28T17:16:35.988Z,100941.41
2022-10-28T17:19:06.964Z,100953.03
2022-10-28T17:21:37.043Z,100942.53
2022-10-28T17:24:06.401Z,100940.25
2022-10-28T17:26:35.098Z,100941.09
2022-10-28T17:29:03.776Z,100942.97
2022-10-28T17:31:32.340Z,100933.03
2022-10-28T17:34:01.134Z,100920.41
2022-10-28T17:36:29.971Z,100916.41
2022-10-28T17:39:00.782Z,100910.72
2022-10-28T17:41:30.451Z,100910.19
2022-10-28T17:44:20.758Z,100907.38
2022-10-28T17:49:45.506Z,100883.66
2022-10-28T17:52:14.363Z,100875.84
2022-10-28T17:54:44.468Z,100863.09
2022-10-28T17:57:13.511Z,100857.00
2022-10-28T17:59:42.151Z,100844.78
2022-10-28T18:02:12.827Z,100843.09
2022-10-28T18:04:41.753Z,100837.81
2022-10-28T18:07:10.406Z,100838.97
2022-10-28T18:09:40.867Z,100829.44
2022-10-28T18:12:12.837Z,100827.75
2022-10-28T18:14:42.194Z,100824.78
2022-10-28T18:17:13.408Z,100826.50
2022-10-28T18:19:43.965Z,100839.25
2022-10-28T18:22:12.661Z,100835.25
2022-10-28T18:24:41.326Z,100833.88
2022-10-28T18:27:11.340Z,100836.84
2022-10-28T18:29:40.198Z,100830.44
2022-10-28T18:32:08.839Z,100821.09
2022-10-28T18:34:37.673Z,100821.94
2022-10-28T18:37:08.587Z,100821.94
2022-10-28T18:39:37.140Z,100816.56
2022-10-28T18:42:05.839Z,100810.88
2022-10-28T18:44:36.920Z,100806.91
2022-10-28T18:47:05.301Z,100799.13
2022-10-28T18:49:34.020Z,100819.97
2022-10-28T18:52:02.558Z,100823.63
2022-10-28T18:54:33.627Z,100824.22
2022-10-28T18:57:02.372Z,100827.88
2022-10-28T18:59:31.202Z,100838.25
2022-10-28T19:02:01.478Z,100849.88
2022-10-28T19:04:30.099Z,100854.53
2022-10-28T19:06:58.638Z,100859.38
2022-10-28T19:09:27.979Z,100849.00
2022-10-28T19:11:56.555Z,100837.91
2022-10-28T19:14:24.976Z,100821.91
2022-10-28T19:16:53.699Z,100843.91
2022-10-28T19:19:23.840Z,100822.31
2022-10-28T19:21:52.399Z,100815.91
2022-10-28T19:24:21.003Z,100814.91
2022-10-28T19:26:49.624Z,100824.41
2022-10-28T19:29:18.278Z,100823.69
2022-10-28T19:31:46.998Z,100827.25
2022-10-28T19:34:15.661Z,100833.22
2022-10-28T19:36:45.920Z,100826.69
2022-10-28T19:39:14.458Z,100822.28
2022-10-28T19:41:43.644Z,100809.78
2022-10-28T19:44:12.316Z,100810.63
2022-10-28T19:46:40.918Z,100801.38
2022-10-28T19:49:09.539Z,100809.63
2022-10-28T19:51:41.860Z,100808.09
2022-10-28T19:54:15.278Z,100794.84
2022-10-28T19:56:45.375Z,100790.19
2022-10-28T19:59:13.940Z,100787.47
2022-10-28T20:01:45.459Z,100782.78
2022-10-28T20:04:17.698Z,100776.69
2022-10-28T20:06:46.858Z,100771.28
2022-10-28T20:09:18.100Z,100765.03
2022-10-28T20:11:47.023Z,100775.81
2022-10-28T20:14:15.791Z,100784.66
2022-10-28T20:16:46.238Z,100782.09
2022-10-28T20:19:15.471Z,100775.72
2022-10-28T20:21:45.263Z,100767.63
2022-10-28T20:24:13.858Z,100763.91
2022-10-28T20:26:46.978Z,100754.22
2022-10-28T20:29:15.559Z,100765.31
2022-10-28T20:31:44.998Z,100765.59
2022-10-28T20:34:13.904Z,100766.28
2022-10-28T20:36:45.289Z,100764.63
2022-10-28T20:39:15.916Z,100754.78
2022-10-28T20:41:47.561Z,100761.06
2022-10-28T20:44:16.602Z,100751.13
2022-10-28T20:46:48.263Z,100758.06
2022-10-28T20:49:17.501Z,100748.25
2022-10-28T20:51:46.022Z,100744.56
2022-10-28T20:54:14.641Z,100752.06
2022-10-28T20:56:43.224Z,100750.50
2022-10-28T20:59:13.505Z,100737.88
2022-10-28T21:01:42.789Z,100739.44
2022-10-28T21:04:12.566Z,100730.31
2022-10-28T21:06:42.021Z,100727.63
2022-10-28T21:09:11.940Z,100727.50
2022-10-28T21:11:40.980Z,100726.63
2022-10-28T21:14:10.185Z,100728.47
2022-10-28T21:16:40.662Z,100720.25
2022-10-28T21:19:09.999Z,100721.78
2022-10-28T21:21:38.761Z,100711.84
2022-10-28T21:24:08.040Z,100716.91
2022-10-28T21:26:36.700Z,100712.53
2022-10-28T21:29:05.281Z,100715.09
2022-10-28T21:31:33.817Z,100707.28
2022-10-28T21:34:19.103Z,100707.84
2022-10-28T21:36:47.601Z,100703.28
2022-10-28T21:39:16.208Z,100701.81
2022-10-28T21:41:44.761Z,100703.81
2022-10-28T21:44:13.572Z,100702.13
2022-10-28T21:46:42.070Z,100685.78
2022-10-28T21:49:10.599Z,100685.94
2022-10-28T21:51:40.903Z,100672.81
2022-10-28T21:54:09.662Z,100681.25
2022-10-28T21:56:38.300Z,100680.41
2022-10-28T21:59:07.041Z,100676.81
2022-10-28T22:01:36.433Z,100660.63
2022-10-28T22:04:05.920Z,100670.28
2022-10-28T22:06:34.619Z,100664.03
2022-10-28T22:09:04.831Z,100660.34
2022-10-28T22:11:33.311Z,100652.06
2022-10-28T22:14:03.664Z,100661.31
2022-10-28T22:16:34.481Z,100657.66
2022-10-28T22:19:06.022Z,100655.78
2022-10-28T22:21:39.222Z,100655.78
2022-10-28T22:24:10.118Z,100645.13
2022-10-28T22:26:38.965Z,100648.66
2022-10-28T22:29:07.371Z,100647.81
2022-10-28T22:31:35.886Z,100642.28
2022-10-28T22:34:05.569Z,100644.16
2022-10-28T22:36:34.483Z,100641.13
2022-10-28T22:39:02.930Z,100636.72
2022-10-28T22:41:33.608Z,100633.03
2022-10-28T22:44:04.827Z,100629.63
2022-10-28T22:46:36.794Z,100634.00
2022-10-28T22:49:05.798Z,100627.63
2022-10-28T22:51:34.249Z,100614.13
2022-10-28T22:54:02.778Z,100614.00
2022-10-28T22:56:32.918Z,100602.03
2022-10-28T22:59:03.125Z,100603.00
2022-10-28T23:01:32.094Z,100608.41
2022-10-28T23:04:01.121Z,100605.41
2022-10-28T23:06:30.515Z,100594.47
2022-10-28T23:08:59.135Z,100598.31
2022-10-28T23:11:27.595Z,100599.00
2022-10-28T23:13:57.653Z,100596.00
2022-10-28T23:16:26.380Z,100596.00
2022-10-28T23:18:55.029Z,100597.69
2022-10-28T23:21:25.252Z,100592.13
2022-10-28T23:23:54.897Z,100590.97
2022-10-28T23:26:24.301Z,100586.59
2022-10-28T23:28:54.178Z,100579.19
2022-10-28T23:31:25.217Z,100581.88
2022-10-28T23:33:55.328Z,100591.13
2022-10-28T23:36:24.125Z,100580.88
2022-10-28T23:38:53.688Z,100572.91
2022-10-28T23:41:22.220Z,100576.63
2022-10-28T23:43:50.853Z,100571.22
2022-10-28T23:46:20.620Z,100575.16
2022-10-28T23:48:50.604Z,100572.78
2022-10-28T23:51:19.439Z,100568.06
2022-10-28T23:53:47.917Z,100568.06
2022-10-28T23:56:16.390Z,100562.66
2022-10-28T23:58:44.832Z,100558.94
